No Warnings, Watches, or Advisories

Active alerts


No alerts

Amazon Weather

Hours of Daylight

15 hrs 7 min 13 sec
of Daylight Today
graph 63% Day 37% Night Which is 4 sec Shorter
Than Yesterday

South West Webcam Still Photo more information South West Webcam Still Photo


You find our weather info also at:

UK Metoffice

Weather Underground

Mid-Atlantic Weather Network

WeatherlinkIP

Citizen Weather Observer Program (CWOP)

HAMweather, WeatherForYou, PWS Weather



Nearby METAR Reports

   
KDUJ - Du Bois, Pennsylvania, USA
Distance from station: NNE 16 mi
Updated: Jun 22 2018 4:53 am
Mostly Cloudy  
Mostly Cloudy  
   Wind: East 8.1 mph
Wind: East 8.1 mph
Temperature: 60.8°F
Dew Point: 51.8°F
Humidity: 72%
Barometer: 29.9 inHg
Clouds: Mostly Cloudy
Visibility: 10 mi
Cloud details: Few Clouds 10000 ft,
Mostly Cloudy 12000 ft
KDUJ 220853Z AUTO 08007KT 10SM FEW100 BKN120 16/11 A2990 RMK AO2 SLP113 T01560106 53002
KIDI - Indiana/Stewart, Pennsylvania, USA
Distance from station: SSW 23 mi
Updated: Jun 22 2018 4:55 am
Overcast  
Overcast  
   Wind: East 8.1 mph
Wind: East 8.1 mph
Temperature: 64.4°F
Dew Point: 60.8°F
Humidity: 88%
Barometer: 29.89 inHg
Clouds: Overcast
Visibility: 10 mi
Cloud details: Few Clouds 6500 ft,
Few Clouds 7500 ft,
Overcast 9500 ft
KIDI 220855Z AUTO 09007KT 10SM FEW065 FEW075 OVC095 18/16 A2989 RMK A01
KFIG - Clearfield, Pennsylvania, USA
Distance from station: ENE 31 mi
Updated: Jun 22 2018 4:54 am
Light Rain, Overcast  
Light Rain, Overcast  
   Wind: ENE 6.9 mph
Wind: ENE 6.9 mph
Temperature: 60.8°F
Dew Point: 50°F
Humidity: 68%
Barometer: 29.92 inHg
Clouds: Overcast
Visibility: 10 mi
Cloud details: Overcast 11000 ft
KFIG 220854Z AUTO 07006KT 10SM -RA OVC110 16/10 A2992 RMK AO2 RAB48 SLP124 P0000 60000 T01560100 53004
KJST - Johnstown, Pennsylvania, USA
Distance from station: S 44 mi
Updated: Jun 22 2018 4:54 am
Overcast  
Overcast  
   Wind: SSE 5.8 mph
Wind: SSE 5.8 mph
Temperature: 62.6°F
Dew Point: 57.2°F
Humidity: 83%
Barometer: 29.9 inHg
Clouds: Overcast
Visibility: 10 mi
Cloud details: Overcast 9500 ft
KJST 220854Z AUTO 15005KT 10SM OVC095 17/14 A2990 RMK AO2 RAE0759 SLP111 P0000 60003 T01670144 53005
KPIT - Pittsburgh, Pennsylvania, USA
Distance from station: WSW 74 mi
Updated: Jun 22 2018 4:51 am
Overcast  
Overcast  
   Wind: East 6.9 mph
Wind: East 6.9 mph
Temperature: 66.2°F
Dew Point: 62.6°F
Humidity: 88%
Barometer: 29.81 inHg
Clouds: Overcast
Visibility: 9 mi
Cloud details: Few Clouds 3300 ft,
Overcast 7000 ft
KPIT 220851Z 08006KT 9SM FEW033 OVC070 19/17 A2981 RMK AO2 RAE46 SLP093 P0000 60000 T01890167 56001
KLBE - Latrobe/Westmorl, Pennsylvania, USA
Distance from station: SSW 52 mi
Updated: Jun 22 2018 4:55 am
Light Drizzle, Overcast  
Light Drizzle, Overcast  
   Wind: Calm
Wind: Calm
Temperature: 66.2°F
Dew Point: 62.6°F
Humidity: 88%
Barometer: 29.84 inHg
Clouds: Overcast
Visibility: 5 mi
Cloud details: Few Clouds 3100 ft,
Mostly Cloudy 5000 ft,
Overcast 6000 ft
KLBE 220855Z AUTO 00000KT 5SM -DZ FEW031 BKN050 OVC060 19/17 A2984 RMK AO2
KBTP - Butler Co., Pennsylvania, USA
Distance from station: WSW 52 mi
Updated: Jun 22 2018 4:56 am
Overcast  
Overcast  
   Wind: East 11.5 mph
Wind: East 11.5 mph
Temperature: 66.2°F
Dew Point: 60.8°F
Humidity: 83%
Barometer: 29.84 inHg
Clouds: Overcast
Visibility: 10 mi
Cloud details: Mostly Cloudy 8500 ft,
Overcast 11000 ft
KBTP 220856Z AUTO 08010KT 10SM BKN085 OVC110 19/16 A2984 RMK AO2 SLP102 60000 T01890156 53000
KUCP - New Castle Muni, Pennsylvania, USA
Distance from station: W 75 mi
Updated: Jun 22 2018 4:56 am
Light Rain, Partly Cloudy  
Light Rain, Partly Cloudy  
   Wind: East 9.2 mph
Wind: East 9.2 mph
Temperature: 66.2°F
Dew Point: 62.6°F
Humidity: 88%
Barometer: 29.83 inHg
Clouds: Partly Cloudy
Visibility: 10 mi
Cloud details: Few Clouds 9500 ft,
Partly Cloudy 12000 ft
KUCP 220856Z AUTO 08008KT 10SM -RA FEW095 SCT120 19/17 A2983 RMK AO2 RAE09B31 SLP108 P0000 60000 T01890172 58001
KFKL - Franklin, Pennsylvania, USA
Distance from station: WNW 54 mi
Updated: Jun 22 2018 4:56 am
Light Rain, Mostly Cloudy  
Light Rain, Mostly Cloudy  
   Wind: ENE 10.4 mph
Wind: ENE 10.4 mph
Temperature: 60.8°F
Dew Point: 57.2°F
Humidity: 88%
Barometer: 29.88 inHg
Clouds: Mostly Cloudy
Visibility: 10 mi
Cloud details: Few Clouds 9000 ft,
Mostly Cloudy 11000 ft
KFKL 220856Z AUTO 07009KT 10SM -RA FEW090 BKN110 16/14 A2988 RMK AO2 SLP110 P0001 60001 T01610144 53001
KAOO - Altoona, Pennsylvania, USA
Distance from station: SE 57 mi
Updated: Jun 22 2018 4:53 am
Mostly Cloudy  
Mostly Cloudy  
   Wind: NE 5.8 mph
Wind: NE 5.8 mph
Temperature: 66.2°F
Dew Point: 59°F
Humidity: 78%
Barometer: 29.9 inHg
Clouds: Mostly Cloudy
Visibility: 10 mi
Cloud details: Mostly Cloudy 11000 ft
KAOO 220853Z AUTO 04005KT 10SM BKN110 19/15 A2990 RMK AO2 RAE14 SLP114 P0001 60003 T01890150 53004
KUNV - State College, Pennsylvania, USA
Distance from station: E 61 mi
Updated: Jun 22 2018 4:55 am
Mostly Cloudy  
Mostly Cloudy  
   Wind: Calm
Wind: Calm
Temperature: 60.8°F
Dew Point: 53.6°F
Humidity: 77%
Barometer: 29.92 inHg
Clouds: Mostly Cloudy
Visibility: 10 mi
Cloud details: Mostly Cloudy 12000 ft
KUNV 220855Z AUTO 10SM BKN120 16/12 A2992 RMK AO2 T01600120
KBFD - Bradford, Pennsylvania, USA
Distance from station: NNE 62 mi
Updated: Jun 22 2018 4:53 am
Clear  
Clear  
   Wind: ESE 4.6 mph
Wind: ESE 4.6 mph
Temperature: 51.8°F
Dew Point: 41°F
Humidity: 67%
Barometer: 29.94 inHg
Clouds: Clear
Visibility: 10 mi
Cloud details: Clear
KBFD 220853Z AUTO 11004KT 10SM CLR 11/05 A2994 RMK AO2 SLP127 T01110050 55002

Script developed by  Saratoga-weather.org Adapted for the template by  Weerstation Leuven

Equipment we use:

Weather-station
Davis VP2

Weather-program
Cumulus

Weather-server
Dell Inspiron 3521

Provider
Host On A Rope

Davis VP2

Cumulus

Dell Inspiron 3521

Host On A Rope